Ancona, Illinois
Current Conditions -  °F | °C
As of 11:55 PM on Wednesday 22 Oct 2014 (Local Time) from KPNT Reporting Station
Clear Clear  
Wind Chill: 32°   Ceiling: Unl
Heat Index: 36°   Visibility: 10mi
Dew Point: 34°   Wind: 5mph
Humidity: 91%   Direction: 110°ESE
Pressure: 30.26"   Gusts: NA
Location:  41.04°N, 88.87°W
Report Text: KPNT 230455Z AUTO 11004KT 10SM CLR 02/01 A3026 RMK AO2 T00230009
Loading
Personal Weather Stations






























Interactive Weather Map
Tropical Storm Tracking
New forecast layout! Learn more

10-Day Weather Forecast

Advertisements
Track Severe Weather on mobile